Time;durP1;ratioP1;P1;durP2;ratioP2;P2;SDS_P1;SDS_P2;PMS_P1;PMS_P2;Temp;Humidity;BMP_temperature;BMP_pressure;BME280_temperature;BME280_humidity;BME280_pressure;Samples;Min_cycle;Max_cycle;Signal;HPM_P1;HPM_P2
2024/01/15 00:02:09;;;;;;;;;;;1.80;99.90;;;;;;4980083;28;19922;-76
2024/01/15 00:04:55;;;;;;;;;;;1.70;99.90;;;;;;4980221;28;20330;-76
2024/01/15 00:07:42;;;;;;;;;;;1.70;99.90;;;;;;4965420;28;20322;-76
2024/01/15 00:10:27;;;;;;;;;;;1.70;99.90;;;;;;4977825;28;19952;-76
2024/01/15 00:13:13;;;;;;;;;;;1.70;99.90;;;;;;4971116;28;20566;-76
2024/01/15 00:15:59;;;;;;;;;;;1.70;99.90;;;;;;4979385;28;19918;-76
2024/01/15 00:18:45;;;;;;;;;;;1.70;99.90;;;;;;4966245;28;20599;-76
2024/01/15 00:21:31;;;;;;;;;;;1.70;99.90;;;;;;4979788;28;19922;-76
2024/01/15 00:24:17;;;;;;;;;;;1.70;99.90;;;;;;4965990;28;19913;-76
2024/01/15 00:27:03;;;;;;;;;;;1.70;99.90;;;;;;4975632;28;19953;-76
2024/01/15 00:29:50;;;;;;;;;;;1.70;99.90;;;;;;4982006;28;19918;-76
2024/01/15 00:32:36;;;;;;;;;;;1.70;99.90;;;;;;4966322;28;19917;-76
2024/01/15 00:35:22;;;;;;;;;;;1.70;99.90;;;;;;4975075;28;19957;-77
2024/01/15 00:38:07;;;;;;;;;;;1.70;99.90;;;;;;4980866;28;20519;-76
2024/01/15 00:40:54;;;;;;;;;;;1.70;99.90;;;;;;4989495;28;19918;-76
2024/01/15 00:43:40;;;;;;;;;;;1.60;99.90;;;;;;4982558;28;19917;-76
2024/01/15 00:46:26;;;;;;;;;;;1.60;99.90;;;;;;4982187;28;19949;-75
2024/01/15 00:49:14;;;;;;;;;;;1.60;99.90;;;;;;4973767;28;19972;-76
2024/01/15 00:52:00;;;;;;;;;;;1.70;99.90;;;;;;4982765;28;20001;-76
2024/01/15 00:54:46;;;;;;;;;;;1.70;99.90;;;;;;4969181;28;19933;-76
2024/01/15 00:57:32;;;;;;;;;;;1.70;99.90;;;;;;4980523;28;19921;-76
2024/01/15 01:00:18;;;;;;;;;;;1.70;99.90;;;;;;4968922;28;20349;-77
2024/01/15 01:03:06;;;;;;;;;;;1.70;99.90;;;;;;4971308;28;20472;-76
2024/01/15 01:05:52;;;;;;;;;;;1.70;99.90;;;;;;4979961;28;19918;-76
2024/01/15 01:08:38;;;;;;;;;;;1.70;99.90;;;;;;4972793;28;19925;-76
2024/01/15 01:11:24;;;;;;;;;;;1.70;99.90;;;;;;4950561;28;19981;-75
2024/01/15 01:14:10;;;;;;;;;;;1.70;99.90;;;;;;4977512;28;20242;-76
2024/01/15 01:16:55;;;;;;;;;;;1.70;99.90;;;;;;4947455;28;19943;-76
2024/01/15 01:19:41;;;;;;;;;;;1.70;99.90;;;;;;4988250;28;19914;-75
2024/01/15 01:22:27;;;;;;;;;;;1.60;99.90;;;;;;4967127;28;19928;-76
2024/01/15 01:25:13;;;;;;;;;;;1.70;99.90;;;;;;4979928;28;20277;-76
2024/01/15 01:27:59;;;;;;;;;;;1.60;99.90;;;;;;4966953;28;19922;-76
2024/01/15 01:30:45;;;;;;;;;;;1.60;99.90;;;;;;4979846;28;19929;-76
2024/01/15 01:33:31;;;;;;;;;;;1.60;99.90;;;;;;4980603;28;19921;-75
2024/01/15 01:36:17;;;;;;;;;;;1.60;99.90;;;;;;4967620;28;20600;-76
2024/01/15 01:39:02;;;;;;;;;;;1.60;99.90;;;;;;4961742;28;20347;-76
2024/01/15 01:41:48;;;;;;;;;;;1.60;99.90;;;;;;4960015;28;20012;-76
2024/01/15 01:44:34;;;;;;;;;;;1.60;99.90;;;;;;4969232;28;19925;-76
2024/01/15 01:47:20;;;;;;;;;;;1.60;99.90;;;;;;4979480;28;19925;-76
2024/01/15 01:50:06;;;;;;;;;;;1.50;99.90;;;;;;4981502;28;20346;-76
2024/01/15 01:52:52;;;;;;;;;;;1.60;99.90;;;;;;4968836;28;19918;-76
2024/01/15 01:55:38;;;;;;;;;;;1.50;99.90;;;;;;4989859;28;19921;-77
2024/01/15 01:58:25;;;;;;;;;;;1.60;99.90;;;;;;4967954;28;19914;-76
2024/01/15 02:01:11;;;;;;;;;;;1.60;99.90;;;;;;4964999;28;20250;-76
2024/01/15 02:03:57;;;;;;;;;;;1.60;99.90;;;;;;4968981;28;19922;-76
2024/01/15 02:06:43;;;;;;;;;;;1.70;99.90;;;;;;4961945;28;19918;-77
2024/01/15 02:09:29;;;;;;;;;;;1.70;99.90;;;;;;4962115;28;20680;-76
2024/01/15 02:12:15;;;;;;;;;;;1.70;99.90;;;;;;4988947;28;19918;-77
2024/01/15 02:15:01;;;;;;;;;;;1.70;99.90;;;;;;4961084;28;19948;-76
2024/01/15 02:17:56;;;;;;;;;;;1.70;99.90;;;;;;4950644;28;19914;-77
2024/01/15 02:20:44;;;;;;;;;;;1.70;99.90;;;;;;4967970;28;19918;-76
2024/01/15 02:23:29;;;;;;;;;;;1.70;99.90;;;;;;4996084;28;19922;-77
2024/01/15 02:26:15;;;;;;;;;;;1.70;99.90;;;;;;4948951;28;20001;-76
2024/01/15 02:29:01;;;;;;;;;;;1.70;99.90;;;;;;4965700;28;19924;-77
2024/01/15 02:31:47;;;;;;;;;;;1.70;99.90;;;;;;4981713;28;20345;-76
2024/01/15 02:34:33;;;;;;;;;;;1.70;99.90;;;;;;4981435;28;19924;-76
2024/01/15 02:37:20;;;;;;;;;;;1.70;99.90;;;;;;4980546;28;19922;-76
2024/01/15 02:40:06;;;;;;;;;;;1.70;99.90;;;;;;4975754;28;19918;-77
2024/01/15 02:42:52;;;;;;;;;;;1.80;99.90;;;;;;4968291;28;19925;-76
2024/01/15 02:45:38;;;;;;;;;;;1.80;99.90;;;;;;4980824;28;20297;-76
2024/01/15 02:48:24;;;;;;;;;;;1.80;99.90;;;;;;4981259;28;19924;-76
2024/01/15 02:51:09;;;;;;;;;;;1.80;99.90;;;;;;4995171;28;20262;-76
2024/01/15 02:53:55;;;;;;;;;;;1.80;99.90;;;;;;4961935;28;20434;-76
2024/01/15 02:56:41;;;;;;;;;;;1.80;99.90;;;;;;4979651;28;19914;-77
2024/01/15 02:59:27;;;;;;;;;;;1.90;99.90;;;;;;4973690;28;19921;-76
2024/01/15 03:02:13;;;;;;;;;;;1.90;99.90;;;;;;4971397;28;19918;-76
2024/01/15 03:04:59;;;;;;;;;;;1.90;99.90;;;;;;4980209;28;19929;-76
2024/01/15 03:07:45;;;;;;;;;;;1.90;99.90;;;;;;4978005;28;20302;-76
2024/01/15 03:10:30;;;;;;;;;;;2.00;99.90;;;;;;4961810;28;19996;-76
2024/01/15 03:13:16;;;;;;;;;;;2.00;99.90;;;;;;4971777;28;19929;-76
2024/01/15 03:16:04;;;;;;;;;;;2.00;99.90;;;;;;4962001;28;20476;-76
2024/01/15 03:18:50;;;;;;;;;;;2.00;99.90;;;;;;4978380;28;19918;-76
2024/01/15 03:21:36;;;;;;;;;;;2.10;99.90;;;;;;4964674;28;19974;-76
2024/01/15 03:24:22;;;;;;;;;;;2.10;99.90;;;;;;4965111;28;19914;-76
2024/01/15 03:27:08;;;;;;;;;;;2.10;99.90;;;;;;4980710;28;19960;-76
2024/01/15 03:29:53;;;;;;;;;;;2.10;99.90;;;;;;4965704;28;19954;-77
2024/01/15 03:32:39;;;;;;;;;;;2.10;99.90;;;;;;4965692;28;19917;-76
2024/01/15 03:35:29;;;;;;;;;;;2.10;99.90;;;;;;4964329;28;19930;-76
2024/01/15 03:38:14;;;;;;;;;;;2.10;99.90;;;;;;4947687;28;20319;-76
2024/01/15 03:41:00;;;;;;;;;;;2.10;99.90;;;;;;4948054;28;19922;-76
2024/01/15 03:43:46;;;;;;;;;;;2.10;99.90;;;;;;4985508;28;20591;-76
2024/01/15 03:46:32;;;;;;;;;;;2.10;99.90;;;;;;4981137;28;19914;-76
2024/01/15 03:49:18;;;;;;;;;;;2.10;99.90;;;;;;4980802;28;19993;-76
2024/01/15 03:52:04;;;;;;;;;;;2.10;99.90;;;;;;4980615;28;20020;-77
2024/01/15 03:54:50;;;;;;;;;;;2.10;99.90;;;;;;4979182;28;20242;-77
2024/01/15 03:57:36;;;;;;;;;;;2.20;99.90;;;;;;4980681;28;20636;-76
2024/01/15 04:00:22;;;;;;;;;;;2.10;99.90;;;;;;4980124;28;19917;-76
2024/01/15 04:03:08;;;;;;;;;;;2.10;99.90;;;;;;4981134;28;19914;-77
2024/01/15 04:05:54;;;;;;;;;;;2.10;99.90;;;;;;4984335;28;19944;-77
2024/01/15 04:08:40;;;;;;;;;;;2.20;99.90;;;;;;4963436;28;20373;-76
2024/01/15 04:11:26;;;;;;;;;;;2.10;99.90;;;;;;4975212;28;19918;-76
2024/01/15 04:14:12;;;;;;;;;;;2.10;99.90;;;;;;4984959;28;19913;-76
2024/01/15 04:16:58;;;;;;;;;;;2.10;99.90;;;;;;4997200;28;20623;-76
2024/01/15 04:19:44;;;;;;;;;;;2.00;99.90;;;;;;4998877;28;19913;-77
2024/01/15 04:22:30;;;;;;;;;;;2.10;99.90;;;;;;4977936;28;19929;-77
2024/01/15 04:25:16;;;;;;;;;;;2.00;99.90;;;;;;4975351;28;19914;-76
2024/01/15 04:28:02;;;;;;;;;;;2.00;99.90;;;;;;4984335;28;19922;-77
2024/01/15 04:30:48;;;;;;;;;;;2.00;99.90;;;;;;4982582;28;19922;-77
2024/01/15 04:33:33;;;;;;;;;;;1.90;99.90;;;;;;4984327;28;19929;-77
2024/01/15 04:36:19;;;;;;;;;;;1.90;99.90;;;;;;4965535;28;19918;-76
2024/01/15 04:39:05;;;;;;;;;;;2.00;99.90;;;;;;4952060;28;19914;-77
2024/01/15 04:41:51;;;;;;;;;;;2.00;99.90;;;;;;4991279;28;19918;-76
2024/01/15 04:44:37;;;;;;;;;;;2.00;99.90;;;;;;4983417;28;20365;-76
2024/01/15 04:47:23;;;;;;;;;;;2.00;99.90;;;;;;4982748;28;19918;-76
2024/01/15 04:50:09;;;;;;;;;;;2.00;99.90;;;;;;4983141;28;19928;-76
2024/01/15 04:52:55;;;;;;;;;;;2.10;99.90;;;;;;4970643;28;19976;-77
2024/01/15 04:55:40;;;;;;;;;;;2.10;99.90;;;;;;4978946;28;20545;-76
2024/01/15 04:58:27;;;;;;;;;;;2.20;99.90;;;;;;4950475;28;20506;-77
2024/01/15 05:01:13;;;;;;;;;;;2.10;99.90;;;;;;4971051;28;19918;-77
2024/01/15 05:03:59;;;;;;;;;;;2.10;99.90;;;;;;4968457;28;20326;-77
2024/01/15 05:06:44;;;;;;;;;;;2.10;99.90;;;;;;4981801;28;19928;-77
2024/01/15 05:09:30;;;;;;;;;;;2.10;99.90;;;;;;4967946;28;19992;-76
2024/01/15 05:12:16;;;;;;;;;;;2.10;99.90;;;;;;4968215;28;20000;-76
2024/01/15 05:15:03;;;;;;;;;;;2.10;99.90;;;;;;4981296;28;19918;-77
2024/01/15 05:17:49;;;;;;;;;;;2.10;99.90;;;;;;4963492;28;19961;-76
2024/01/15 05:20:35;;;;;;;;;;;2.10;99.90;;;;;;4979972;28;20315;-77
2024/01/15 05:23:21;;;;;;;;;;;2.10;99.90;;;;;;4982100;28;19960;-77
2024/01/15 05:26:08;;;;;;;;;;;2.20;99.90;;;;;;4997169;28;20345;-77
2024/01/15 05:28:54;;;;;;;;;;;2.10;99.90;;;;;;4996998;28;20250;-77
2024/01/15 05:31:40;;;;;;;;;;;2.10;99.90;;;;;;4980482;28;19920;-77
2024/01/15 05:34:26;;;;;;;;;;;2.00;99.90;;;;;;4968836;28;20516;-77
2024/01/15 05:37:12;;;;;;;;;;;2.00;99.90;;;;;;4968354;28;19984;-77
2024/01/15 05:39:58;;;;;;;;;;;1.90;99.90;;;;;;4967732;28;20064;-76
2024/01/15 05:42:44;;;;;;;;;;;1.90;99.90;;;;;;4980730;28;19917;-76
2024/01/15 05:45:30;;;;;;;;;;;1.90;99.90;;;;;;4997413;28;19922;-77
2024/01/15 05:48:16;;;;;;;;;;;1.80;99.90;;;;;;4961270;28;19914;-76
2024/01/15 05:51:02;;;;;;;;;;;1.90;99.90;;;;;;4969517;28;19918;-76
2024/01/15 05:53:47;;;;;;;;;;;1.90;99.90;;;;;;4981569;28;20000;-77
2024/01/15 05:56:33;;;;;;;;;;;1.90;99.90;;;;;;4962956;28;19918;-76
2024/01/15 05:59:19;;;;;;;;;;;1.90;99.90;;;;;;4964033;28;19929;-77
2024/01/15 06:02:05;;;;;;;;;;;1.90;99.90;;;;;;4962042;28;19968;-77
2024/01/15 06:04:51;;;;;;;;;;;2.00;99.90;;;;;;4981594;28;19921;-77
2024/01/15 06:07:37;;;;;;;;;;;1.90;99.90;;;;;;4949038;28;20315;-77
2024/01/15 06:10:23;;;;;;;;;;;1.90;99.90;;;;;;4980076;28;20008;-77
2024/01/15 06:13:08;;;;;;;;;;;1.90;99.90;;;;;;4996207;28;20576;-76
2024/01/15 06:15:54;;;;;;;;;;;1.90;99.90;;;;;;4981338;28;19914;-76
2024/01/15 06:18:40;;;;;;;;;;;1.90;99.90;;;;;;4982769;28;19914;-77
2024/01/15 06:21:26;;;;;;;;;;;1.90;99.90;;;;;;4966922;28;19932;-76
2024/01/15 06:24:13;;;;;;;;;;;1.90;99.90;;;;;;4964356;28;20004;-77
2024/01/15 06:26:59;;;;;;;;;;;1.90;99.90;;;;;;4981293;28;19928;-76
2024/01/15 06:29:46;;;;;;;;;;;1.90;99.90;;;;;;4949086;28;19914;-76
2024/01/15 06:32:32;;;;;;;;;;;1.90;99.90;;;;;;4993846;28;19913;-76
2024/01/15 06:35:18;;;;;;;;;;;1.90;99.90;;;;;;4962097;28;19929;-76
2024/01/15 06:38:04;;;;;;;;;;;1.80;99.90;;;;;;4970440;28;19996;-77
2024/01/15 06:40:51;;;;;;;;;;;1.80;99.90;;;;;;4975986;28;19922;-76
2024/01/15 06:43:37;;;;;;;;;;;1.70;99.90;;;;;;4949004;28;19918;-76
2024/01/15 06:46:23;;;;;;;;;;;1.60;99.90;;;;;;4955773;28;19928;-77
2024/01/15 06:49:09;;;;;;;;;;;1.70;99.90;;;;;;4968752;28;19918;-77
2024/01/15 06:51:55;;;;;;;;;;;1.60;99.90;;;;;;4968561;28;19924;-76
2024/01/15 06:54:41;;;;;;;;;;;1.60;99.90;;;;;;4980461;28;19953;-77
2024/01/15 06:57:27;;;;;;;;;;;1.60;99.90;;;;;;4962405;28;20008;-76
2024/01/15 07:00:13;;;;;;;;;;;1.60;99.90;;;;;;4947329;28;20247;-76
2024/01/15 07:02:59;;;;;;;;;;;1.60;99.90;;;;;;4978776;28;20104;-76
2024/01/15 07:05:45;;;;;;;;;;;1.60;99.90;;;;;;4980700;28;20250;-76
2024/01/15 07:08:31;;;;;;;;;;;1.60;99.90;;;;;;4967389;28;19940;-76
2024/01/15 07:11:17;;;;;;;;;;;1.70;99.90;;;;;;4980929;28;20001;-76
2024/01/15 07:14:03;;;;;;;;;;;1.60;99.90;;;;;;4979312;28;19913;-76
2024/01/15 07:16:49;;;;;;;;;;;1.60;99.90;;;;;;4959250;28;19922;-76
2024/01/15 07:19:35;;;;;;;;;;;1.70;99.90;;;;;;4977673;28;19954;-77
2024/01/15 07:22:21;;;;;;;;;;;1.70;99.90;;;;;;4966555;28;19932;-76
2024/01/15 07:25:07;;;;;;;;;;;1.70;99.90;;;;;;4961056;28;19922;-76
2024/01/15 07:27:54;;;;;;;;;;;1.70;99.90;;;;;;4985123;28;20608;-76
2024/01/15 07:30:39;;;;;;;;;;;1.70;99.90;;;;;;4980142;28;19918;-76
2024/01/15 07:33:26;;;;;;;;;;;1.70;99.90;;;;;;4965417;28;20353;-76
2024/01/15 07:36:12;;;;;;;;;;;1.70;99.90;;;;;;4981028;28;19952;-76
2024/01/15 07:38:57;;;;;;;;;;;1.60;99.90;;;;;;4955201;28;19918;-77
2024/01/15 07:41:43;;;;;;;;;;;1.60;99.90;;;;;;4970655;28;19953;-76
2024/01/15 07:44:29;;;;;;;;;;;1.60;99.90;;;;;;4972387;28;19975;-76
2024/01/15 07:47:15;;;;;;;;;;;1.60;99.90;;;;;;4984599;28;20342;-76
2024/01/15 07:50:01;;;;;;;;;;;1.50;99.90;;;;;;4968785;28;19954;-76
2024/01/15 07:52:47;;;;;;;;;;;1.50;99.90;;;;;;4961417;28;19925;-77
2024/01/15 07:55:33;;;;;;;;;;;1.60;99.90;;;;;;4986027;28;19925;-76
2024/01/15 07:58:19;;;;;;;;;;;1.60;99.90;;;;;;4984436;28;19913;-77
2024/01/15 08:01:06;;;;;;;;;;;1.60;99.90;;;;;;4969992;28;19979;-76
2024/01/15 08:03:52;;;;;;;;;;;1.60;99.90;;;;;;4983548;28;19949;-76
2024/01/15 08:06:38;;;;;;;;;;;1.70;99.90;;;;;;4988605;28;19924;-76
2024/01/15 08:09:24;;;;;;;;;;;1.70;99.90;;;;;;4953750;28;19925;-76
2024/01/15 08:12:11;;;;;;;;;;;1.60;99.90;;;;;;4951808;28;19922;-77
2024/01/15 08:14:57;;;;;;;;;;;1.60;99.90;;;;;;4979722;28;19921;-77
2024/01/15 08:17:43;;;;;;;;;;;1.70;99.90;;;;;;4983494;28;20238;-77
2024/01/15 08:20:29;;;;;;;;;;;1.70;99.90;;;;;;4997319;28;19914;-77
2024/01/15 08:23:14;;;;;;;;;;;1.80;99.90;;;;;;4964210;28;20554;-76
2024/01/15 08:26:00;;;;;;;;;;;1.70;99.90;;;;;;4970220;28;19973;-77
2024/01/15 08:28:46;;;;;;;;;;;1.70;99.90;;;;;;4982002;28;19917;-76
2024/01/15 08:31:32;;;;;;;;;;;1.80;99.90;;;;;;4987189;28;19914;-76
2024/01/15 08:34:18;;;;;;;;;;;1.80;99.90;;;;;;4969837;28;20467;-76
2024/01/15 08:37:04;;;;;;;;;;;1.70;99.90;;;;;;4965215;28;20370;-76
2024/01/15 08:39:50;;;;;;;;;;;1.70;99.90;;;;;;4949676;28;19922;-75
2024/01/15 08:42:36;;;;;;;;;;;1.70;99.90;;;;;;4981852;28;19918;-76
2024/01/15 08:45:23;;;;;;;;;;;1.70;99.90;;;;;;4983139;28;19914;-75
2024/01/15 08:48:09;;;;;;;;;;;1.70;99.90;;;;;;4981907;28;19956;-76
2024/01/15 08:50:54;;;;;;;;;;;1.70;99.90;;;;;;4968264;28;20663;-76
2024/01/15 08:53:40;;;;;;;;;;;1.70;99.90;;;;;;4981920;28;19914;-76
2024/01/15 08:56:27;;;;;;;;;;;1.70;99.90;;;;;;4977466;28;19964;-75
2024/01/15 08:59:13;;;;;;;;;;;1.70;99.90;;;;;;4985885;28;19924;-76
2024/01/15 09:02:00;;;;;;;;;;;1.70;99.90;;;;;;4968468;28;20012;-77
2024/01/15 09:04:46;;;;;;;;;;;1.60;99.90;;;;;;4968276;28;19918;-75
2024/01/15 09:07:32;;;;;;;;;;;1.60;99.90;;;;;;4968153;28;20732;-76
2024/01/15 09:10:21;;;;;;;;;;;1.60;99.90;;;;;;4981821;28;19922;-76
2024/01/15 09:13:08;;;;;;;;;;;1.60;99.90;;;;;;4969927;28;19922;-76
2024/01/15 09:15:53;;;;;;;;;;;1.60;99.90;;;;;;4963267;28;19914;-76
2024/01/15 09:18:39;;;;;;;;;;;1.60;99.90;;;;;;4963238;28;20331;-76
2024/01/15 09:21:25;;;;;;;;;;;1.60;99.90;;;;;;4963127;28;19918;-76
2024/01/15 09:24:11;;;;;;;;;;;1.60;99.90;;;;;;4975894;28;19928;-75
2024/01/15 09:26:57;;;;;;;;;;;1.60;99.90;;;;;;4975958;28;19925;-76
2024/01/15 09:29:45;;;;;;;;;;;1.60;99.90;;;;;;4978368;28;20330;-75
2024/01/15 09:32:32;;;;;;;;;;;1.70;99.90;;;;;;4994334;28;19917;-75
2024/01/15 09:35:18;;;;;;;;;;;1.70;99.90;;;;;;4968728;28;19918;-75
2024/01/15 09:38:05;;;;;;;;;;;1.70;99.90;;;;;;4968690;28;19918;-75
2024/01/15 09:40:52;;;;;;;;;;;1.60;99.90;;;;;;4968003;28;19965;-76
2024/01/15 09:43:38;;;;;;;;;;;1.60;99.90;;;;;;4989239;28;19925;-76
2024/01/15 09:46:24;;;;;;;;;;;1.60;99.90;;;;;;5193273;23;20346;-73
2024/01/15 09:49:10;;;;;;;;;;;1.70;99.90;;;;;;4973847;28;20620;-74
2024/01/15 09:51:56;;;;;;;;;;;1.70;99.90;;;;;;4956891;28;19984;-73
2024/01/15 09:54:46;;;;;;;;;;;1.70;99.90;;;;;;4981140;28;19917;-73
2024/01/15 09:57:32;;;;;;;;;;;1.80;99.90;;;;;;4961490;28;19914;-74
2024/01/15 10:00:18;;;;;;;;;;;1.80;99.90;;;;;;4974503;28;19964;-73
2024/01/15 10:03:04;;;;;;;;;;;1.80;99.90;;;;;;4974425;28;19981;-73
2024/01/15 10:05:50;;;;;;;;;;;1.90;99.90;;;;;;4980110;28;19956;-73
2024/01/15 10:08:36;;;;;;;;;;;1.90;99.90;;;;;;4980113;28;20658;-73
2024/01/15 10:11:22;;;;;;;;;;;1.90;99.90;;;;;;4981864;28;19964;-74
2024/01/15 10:14:12;;;;;;;;;;;2.00;99.90;;;;;;4973725;28;19975;-74
2024/01/15 10:16:58;;;;;;;;;;;2.10;99.90;;;;;;4952050;28;19956;-73
2024/01/15 10:19:47;;;;;;;;;;;2.00;99.90;;;;;;4967021;28;19924;-73
2024/01/15 10:22:33;;;;;;;;;;;2.00;99.90;;;;;;4954255;28;20401;-74
2024/01/15 10:25:24;;;;;;;;;;;2.00;99.90;;;;;;4949695;28;19972;-74
2024/01/15 10:28:10;;;;;;;;;;;2.10;99.90;;;;;;4956164;28;19930;-73
2024/01/15 10:30:56;;;;;;;;;;;2.10;99.90;;;;;;4967384;28;19914;-74
2024/01/15 10:33:42;;;;;;;;;;;2.10;99.90;;;;;;4979643;28;20591;-73
2024/01/15 10:36:28;;;;;;;;;;;2.10;99.90;;;;;;4966249;28;19976;-74
2024/01/15 10:39:14;;;;;;;;;;;2.20;99.90;;;;;;4957214;28;19949;-74
2024/01/15 10:42:00;;;;;;;;;;;2.20;99.90;;;;;;4968332;28;19956;-74
2024/01/15 10:44:48;;;;;;;;;;;2.20;99.90;;;;;;4975349;28;20494;-73
2024/01/15 10:47:34;;;;;;;;;;;2.20;99.90;;;;;;4957335;28;20234;-74
2024/01/15 10:50:21;;;;;;;;;;;2.20;99.90;;;;;;4976353;28;20355;-73
2024/01/15 10:53:07;;;;;;;;;;;2.20;99.90;;;;;;4964990;28;19972;-74
2024/01/15 10:55:53;;;;;;;;;;;2.20;99.90;;;;;;4979494;28;19914;-74
2024/01/15 10:58:39;;;;;;;;;;;2.30;99.90;;;;;;4979419;28;19960;-73
2024/01/15 11:01:34;;;;;;;;;;;2.30;99.90;;;;;;4961050;28;20346;-73
2024/01/15 11:04:23;;;;;;;;;;;2.30;99.90;;;;;;4964107;28;19929;-74
2024/01/15 11:07:11;;;;;;;;;;;2.30;99.90;;;;;;4947014;28;19925;-73
2024/01/15 11:10:00;;;;;;;;;;;2.20;99.90;;;;;;4953897;28;19972;-73
2024/01/15 11:12:47;;;;;;;;;;;2.20;99.90;;;;;;4968613;28;20000;-74
2024/01/15 11:15:33;;;;;;;;;;;2.20;99.90;;;;;;4966479;28;19957;-73
2024/01/15 11:18:19;;;;;;;;;;;2.10;99.90;;;;;;4963486;28;20275;-74
2024/01/15 11:21:17;;;;;;;;;;;2.20;99.90;;;;;;4947946;28;19945;-73
2024/01/15 11:24:06;;;;;;;;;;;2.10;99.90;;;;;;4975456;28;19996;-74
2024/01/15 11:26:54;;;;;;;;;;;2.10;99.90;;;;;;4961262;28;19943;-74
2024/01/15 11:29:40;;;;;;;;;;;2.00;99.90;;;;;;4947534;28;19918;-74
2024/01/15 11:32:33;;;;;;;;;;;2.00;99.90;;;;;;4970852;28;20349;-74
2024/01/15 11:35:19;;;;;;;;;;;2.00;99.90;;;;;;4958484;28;19954;-73
2024/01/15 11:38:06;;;;;;;;;;;2.00;99.90;;;;;;4968349;28;19921;-74
2024/01/15 11:40:52;;;;;;;;;;;2.00;99.90;;;;;;4980347;28;20349;-74
2024/01/15 11:43:38;;;;;;;;;;;2.10;99.90;;;;;;4981287;28;19921;-74
2024/01/15 11:46:24;;;;;;;;;;;2.10;99.90;;;;;;4961545;28;19918;-74
2024/01/15 11:49:09;;;;;;;;;;;2.20;99.90;;;;;;4977961;28;20008;-74
2024/01/15 11:51:55;;;;;;;;;;;2.20;99.90;;;;;;4964957;28;19924;-74
2024/01/15 11:54:41;;;;;;;;;;;2.20;99.90;;;;;;4978094;28;19921;-74
2024/01/15 11:57:37;;;;;;;;;;;2.20;99.90;;;;;;4957851;28;19929;-74
2024/01/15 12:00:23;;;;;;;;;;;2.30;99.90;;;;;;4947518;28;19929;-73
2024/01/15 12:03:09;;;;;;;;;;;2.20;99.90;;;;;;4954623;28;20690;-74
2024/01/15 12:05:55;;;;;;;;;;;2.20;99.90;;;;;;4972446;28;19925;-73
2024/01/15 12:08:41;;;;;;;;;;;2.20;99.90;;;;;;4976871;28;20324;-73
2024/01/15 12:11:27;;;;;;;;;;;2.20;99.90;;;;;;4977539;28;19935;-74
2024/01/15 12:14:13;;;;;;;;;;;2.20;99.90;;;;;;4967020;28;20311;-74
2024/01/15 12:16:59;;;;;;;;;;;2.20;99.90;;;;;;4980663;28;19968;-74
2024/01/15 12:19:45;;;;;;;;;;;2.30;99.90;;;;;;4966362;28;19914;-73
2024/01/15 12:22:31;;;;;;;;;;;2.30;99.90;;;;;;4964856;28;20023;-73
2024/01/15 12:25:17;;;;;;;;;;;2.30;99.90;;;;;;4965500;28;19914;-74
2024/01/15 12:28:03;;;;;;;;;;;2.40;99.90;;;;;;4970447;28;19914;-74
2024/01/15 12:30:49;;;;;;;;;;;2.40;99.90;;;;;;4948590;28;19914;-74
2024/01/15 12:33:35;;;;;;;;;;;2.40;99.90;;;;;;4975393;28;19924;-73
2024/01/15 12:36:22;;;;;;;;;;;2.50;99.90;;;;;;4960257;28;20004;-74
2024/01/15 12:39:11;;;;;;;;;;;2.50;99.90;;;;;;4979689;28;20009;-74
2024/01/15 12:41:57;;;;;;;;;;;2.50;99.90;;;;;;4983800;28;19992;-74
2024/01/15 12:44:44;;;;;;;;;;;2.50;99.90;;;;;;4965878;28;20748;-74
2024/01/15 12:47:30;;;;;;;;;;;2.50;99.90;;;;;;4968332;28;19918;-74
2024/01/15 12:50:16;;;;;;;;;;;2.50;99.90;;;;;;4983822;28;19913;-74
2024/01/15 12:53:02;;;;;;;;;;;2.50;99.90;;;;;;4956898;28;20327;-74
2024/01/15 12:55:48;;;;;;;;;;;2.50;99.90;;;;;;4963569;28;20366;-74
2024/01/15 12:58:34;;;;;;;;;;;2.40;99.90;;;;;;4966138;28;20005;-73
2024/01/15 13:01:23;;;;;;;;;;;2.40;99.90;;;;;;4951105;28;19977;-74
2024/01/15 13:04:08;;;;;;;;;;;2.40;99.90;;;;;;4966352;28;19913;-74
2024/01/15 13:06:54;;;;;;;;;;;2.30;99.90;;;;;;4983734;28;19918;-74
2024/01/15 13:09:40;;;;;;;;;;;2.30;99.90;;;;;;4982826;28;20519;-73
2024/01/15 13:12:26;;;;;;;;;;;2.30;99.90;;;;;;4965788;28;19919;-73
2024/01/15 13:15:12;;;;;;;;;;;2.30;99.90;;;;;;4963351;28;19925;-74
2024/01/15 13:17:58;;;;;;;;;;;2.30;99.90;;;;;;4951242;28;19926;-74
2024/01/15 13:20:44;;;;;;;;;;;2.40;99.90;;;;;;4974785;28;19929;-73
2024/01/15 13:23:29;;;;;;;;;;;2.40;99.90;;;;;;4963505;28;19939;-73
2024/01/15 13:26:18;;;;;;;;;;;2.30;99.90;;;;;;4950763;28;19928;-74
2024/01/15 13:29:03;;;;;;;;;;;2.40;99.90;;;;;;4963047;28;19964;-73
2024/01/15 13:31:49;;;;;;;;;;;2.40;99.90;;;;;;4950175;28;19973;-74
2024/01/15 13:34:35;;;;;;;;;;;2.30;99.90;;;;;;4965234;28;20081;-73
2024/01/15 13:37:21;;;;;;;;;;;2.30;99.90;;;;;;4961273;28;19929;-74
2024/01/15 13:40:09;;;;;;;;;;;2.30;99.90;;;;;;4982809;28;19929;-74
2024/01/15 13:42:55;;;;;;;;;;;2.30;99.90;;;;;;4950026;28;20319;-73
2024/01/15 13:45:41;;;;;;;;;;;2.30;99.90;;;;;;4949622;28;19929;-73
2024/01/15 13:48:27;;;;;;;;;;;2.40;99.90;;;;;;4974169;28;19957;-74
2024/01/15 13:51:13;;;;;;;;;;;2.40;99.90;;;;;;4957463;28;19914;-74
2024/01/15 13:53:59;;;;;;;;;;;2.40;99.90;;;;;;4958037;28;19978;-74
2024/01/15 13:56:47;;;;;;;;;;;2.40;99.90;;;;;;4955921;28;19919;-74
2024/01/15 13:59:32;;;;;;;;;;;2.40;99.90;;;;;;4957275;28;19919;-74
2024/01/15 14:02:20;;;;;;;;;;;2.40;99.90;;;;;;4956427;29;20251;-74
2024/01/15 14:05:07;;;;;;;;;;;2.40;99.90;;;;;;4960164;28;19951;-74
2024/01/15 14:07:53;;;;;;;;;;;2.30;99.90;;;;;;4962531;28;19993;-74
2024/01/15 14:10:39;;;;;;;;;;;2.10;99.90;;;;;;4976016;28;20389;-74
2024/01/15 14:13:25;;;;;;;;;;;2.10;99.90;;;;;;4956557;28;19923;-73
2024/01/15 14:16:11;;;;;;;;;;;2.00;99.90;;;;;;4959638;28;19950;-73
2024/01/15 14:18:57;;;;;;;;;;;1.90;99.90;;;;;;4944236;29;20331;-73
2024/01/15 14:21:43;;;;;;;;;;;1.80;99.90;;;;;;4961712;28;19933;-74
2024/01/15 14:24:29;;;;;;;;;;;1.90;99.90;;;;;;4956777;29;19919;-75
2024/01/15 14:27:15;;;;;;;;;;;1.90;99.90;;;;;;4956961;29;19914;-76
2024/01/15 14:30:01;;;;;;;;;;;1.90;99.90;;;;;;4956469;29;20451;-73
2024/01/15 14:32:47;;;;;;;;;;;1.90;99.90;;;;;;4968735;28;20390;-75
2024/01/15 14:35:32;;;;;;;;;;;2.00;99.90;;;;;;4956651;28;19918;-73
2024/01/15 14:38:19;;;;;;;;;;;1.90;99.90;;;;;;4957296;28;20532;-76
2024/01/15 14:41:04;;;;;;;;;;;1.80;99.90;;;;;;4956744;28;19980;-73
2024/01/15 14:43:50;;;;;;;;;;;1.80;99.90;;;;;;4943902;28;19930;-73
2024/01/15 14:46:36;;;;;;;;;;;1.80;99.90;;;;;;4962570;28;19948;-73
2024/01/15 14:49:22;;;;;;;;;;;1.70;99.90;;;;;;4955047;28;19918;-73
2024/01/15 14:52:08;;;;;;;;;;;1.80;99.90;;;;;;4949305;28;20390;-74
2024/01/15 14:54:54;;;;;;;;;;;1.90;99.90;;;;;;4957633;28;19925;-73
2024/01/15 14:57:40;;;;;;;;;;;1.90;99.90;;;;;;4964411;28;20289;-73
2024/01/15 15:00:26;;;;;;;;;;;1.90;99.90;;;;;;4961933;28;19928;-73
2024/01/15 15:03:14;;;;;;;;;;;2.00;99.90;;;;;;4966559;28;19926;-74
2024/01/15 15:05:59;;;;;;;;;;;1.90;99.90;;;;;;4950037;28;20481;-74
2024/01/15 15:08:45;;;;;;;;;;;1.70;99.90;;;;;;4964498;28;19913;-74
2024/01/15 15:11:31;;;;;;;;;;;1.70;99.90;;;;;;4981717;28;20032;-73
2024/01/15 15:14:17;;;;;;;;;;;1.70;99.90;;;;;;4988797;28;20236;-74
2024/01/15 15:17:04;;;;;;;;;;;1.60;99.90;;;;;;4960921;28;19956;-75
2024/01/15 15:19:53;;;;;;;;;;;1.60;99.90;;;;;;4959801;28;19922;-75
2024/01/15 15:22:39;;;;;;;;;;;1.60;99.90;;;;;;4947484;28;20068;-75
2024/01/15 15:25:25;;;;;;;;;;;1.60;99.90;;;;;;4971043;28;19914;-75
2024/01/15 15:28:11;;;;;;;;;;;1.50;99.90;;;;;;4973260;28;19921;-75
2024/01/15 15:30:57;;;;;;;;;;;1.50;99.90;;;;;;4961070;28;19918;-75
2024/01/15 15:33:44;;;;;;;;;;;1.60;99.90;;;;;;4975220;28;19918;-77
2024/01/15 15:36:30;;;;;;;;;;;1.60;99.90;;;;;;4988915;28;20310;-76
2024/01/15 15:39:17;;;;;;;;;;;1.50;99.90;;;;;;4966512;28;19956;-76
2024/01/15 15:42:03;;;;;;;;;;;1.50;99.90;;;;;;4965899;28;19988;-76
2024/01/15 15:44:50;;;;;;;;;;;1.60;99.90;;;;;;4966645;28;19925;-76
2024/01/15 15:47:36;;;;;;;;;;;1.60;99.90;;;;;;4994082;28;19921;-77
2024/01/15 15:50:22;;;;;;;;;;;1.60;99.90;;;;;;4947880;28;20322;-76
2024/01/15 15:53:08;;;;;;;;;;;1.60;99.90;;;;;;4966156;28;20024;-76
2024/01/15 15:55:54;;;;;;;;;;;1.60;99.90;;;;;;4959796;28;19918;-75
2024/01/15 15:58:40;;;;;;;;;;;1.50;99.90;;;;;;4976335;28;20000;-76
2024/01/15 16:01:26;;;;;;;;;;;1.60;99.90;;;;;;4964098;28;19925;-76
2024/01/15 16:04:11;;;;;;;;;;;1.60;99.90;;;;;;4983562;28;19929;-76
2024/01/15 16:06:57;;;;;;;;;;;1.60;99.90;;;;;;4970410;28;20219;-76
2024/01/15 16:09:44;;;;;;;;;;;1.60;99.90;;;;;;4965420;28;19949;-77
2024/01/15 16:12:29;;;;;;;;;;;1.60;99.90;;;;;;4976935;28;20314;-77
2024/01/15 16:15:22;;;;;;;;;;;1.60;99.90;;;;;;4983435;28;19972;-77
2024/01/15 16:18:09;;;;;;;;;;;1.50;99.90;;;;;;4969498;28;19918;-76
2024/01/15 16:20:55;;;;;;;;;;;1.50;99.90;;;;;;4982839;28;19921;-77
2024/01/15 16:23:41;;;;;;;;;;;1.40;99.90;;;;;;4964060;28;20444;-76